Time;durP1;ratioP1;P1;durP2;ratioP2;P2;SDS_P1;SDS_P2;PMS_P1;PMS_P2;Temp;Humidity;BMP_temperature;BMP_pressure;BME280_temperature;BME280_humidity;BME280_pressure;Samples;Min_cycle;Max_cycle;Signal;HPM_P1;HPM_P2
2021/05/30 00:00:52;;;;;;;2.27;2.02;;;;;;;23.23;51.99;101212.10;1775702;79;21625;-49
2021/05/30 00:03:19;;;;;;;2.42;1.87;;;;;;;23.18;52.17;101208.92;1773627;80;21031;-49
2021/05/30 00:05:46;;;;;;;3.22;1.90;;;;;;;23.13;52.29;101217.19;1764387;80;21072;-50
2021/05/30 00:08:14;;;;;;;2.40;2.20;;;;;;;23.06;52.37;101209.73;1775773;80;21044;-48
2021/05/30 00:10:42;;;;;;;2.80;2.05;;;;;;;23.03;52.37;101221.41;1788973;78;21583;-49
2021/05/30 00:13:11;;;;;;;2.45;1.82;;;;;;;23.00;52.54;101212.80;1781118;79;21073;-50
2021/05/30 00:15:40;;;;;;;3.55;2.17;;;;;;;22.99;52.52;101212.41;1772104;80;21059;-49
2021/05/30 00:18:07;;;;;;;2.08;1.87;;;;;;;22.98;52.53;101217.36;1780080;80;21591;-49
2021/05/30 00:20:34;;;;;;;3.15;1.70;;;;;;;22.96;52.45;101215.25;1766674;79;21056;-49
2021/05/30 00:23:00;;;;;;;2.55;1.82;;;;;;;22.95;52.28;101218.41;1766634;79;21038;-50
2021/05/30 00:25:27;;;;;;;2.25;2.05;;;;;;;22.97;52.24;101216.97;1782450;79;21056;-49
2021/05/30 00:27:54;;;;;;;1.98;1.80;;;;;;;22.94;52.38;101218.48;1768934;79;21065;-49
2021/05/30 00:30:22;;;;;;;2.47;1.70;;;;;;;22.91;52.29;101213.39;1764609;80;21575;-50
2021/05/30 00:32:48;;;;;;;2.12;1.50;;;;;;;22.90;52.17;101224.94;1776834;80;21110;-49
2021/05/30 00:35:15;;;;;;;2.15;1.77;;;;;;;22.86;52.16;101230.93;1772472;79;21444;-49
2021/05/30 00:37:42;;;;;;;2.90;1.98;;;;;;;22.85;52.38;101228.39;1780011;79;21016;-49
2021/05/30 00:40:09;;;;;;;2.33;2.15;;;;;;;22.86;52.61;101232.26;1770090;80;21051;-49
2021/05/30 00:42:36;;;;;;;2.20;2.00;;;;;;;22.90;52.56;101231.58;1773785;79;21587;-49
2021/05/30 00:45:05;;;;;;;2.20;2.00;;;;;;;22.96;52.23;101223.21;1778329;79;21000;-49
2021/05/30 00:47:32;;;;;;;2.83;2.17;;;;;;;22.99;51.89;101225.21;1775918;79;21031;-49
2021/05/30 00:49:59;;;;;;;2.30;2.10;;;;;;;23.02;51.78;101221.51;1773694;79;21021;-48
2021/05/30 00:52:26;;;;;;;2.33;2.12;;;;;;;23.03;51.76;101221.87;1773853;79;21583;-49
2021/05/30 00:54:54;;;;;;;2.40;2.20;;;;;;;23.06;51.65;101223.01;1774085;79;21052;-49
2021/05/30 00:57:20;;;;;;;2.30;2.10;;;;;;;23.10;51.58;101220.53;1762748;79;21051;-49
2021/05/30 00:59:47;;;;;;;2.60;2.30;;;;;;;23.11;51.63;101222.21;1778914;80;21631;-49
2021/05/30 01:02:14;;;;;;;2.27;2.00;;;;;;;23.14;51.52;101218.05;1768566;79;21040;-49
2021/05/30 01:04:41;;;;;;;2.20;2.00;;;;;;;23.15;51.48;101217.07;1781399;79;21052;-50
2021/05/30 01:07:09;;;;;;;4.50;2.47;;;;;;;23.16;51.53;101218.79;1777492;79;21087;-49
2021/05/30 01:09:36;;;;;;;2.60;1.60;;;;;;;23.16;51.58;101216.14;1776304;79;21548;-49
2021/05/30 01:12:05;;;;;;;1.95;1.75;;;;;;;23.14;51.61;101214.06;1776557;80;21064;-50
2021/05/30 01:14:35;;;;;;;4.10;1.85;;;;;;;23.14;51.72;101218.05;1778979;79;21646;-49
2021/05/30 01:17:06;;;;;;;4.47;2.00;;;;;;;23.08;51.96;101218.45;1705636;82;21052;-50
2021/05/30 01:19:34;;;;;;;2.47;2.27;;;;;;;23.00;52.21;101220.76;1738751;81;21547;-51
2021/05/30 01:22:00;;;;;;;2.87;1.98;;;;;;;22.93;52.59;101222.10;1720701;82;21052;-50
2021/05/30 01:24:28;;;;;;;5.95;2.52;;;;;;;22.85;52.87;101225.73;1764082;79;21099;-51
2021/05/30 01:26:55;;;;;;;2.87;2.30;;;;;;;22.80;53.06;101223.84;1784417;79;21578;-50
2021/05/30 01:29:21;;;;;;;2.37;2.17;;;;;;;22.78;53.34;101217.78;1764940;80;21725;-49
2021/05/30 01:31:50;;;;;;;2.75;2.22;;;;;;;22.78;53.50;101215.12;1768137;80;21041;-50
2021/05/30 01:34:17;;;;;;;3.15;2.37;;;;;;;22.81;53.49;101214.95;1767352;79;21559;-49
2021/05/30 01:36:43;;;;;;;3.20;2.00;;;;;;;22.82;53.33;101206.87;1779824;79;21059;-49
2021/05/30 01:39:10;;;;;;;2.45;1.70;;;;;;;22.81;53.27;101213.63;1745025;81;21039;-49
2021/05/30 01:41:37;;;;;;;2.27;2.08;;;;;;;22.78;53.31;101208.03;1789347;79;21052;-49
2021/05/30 01:44:05;;;;;;;2.10;1.90;;;;;;;22.79;53.26;101214.20;1782151;79;21558;-49
2021/05/30 01:46:31;;;;;;;2.00;1.90;;;;;;;22.79;53.22;101215.05;1772483;79;21032;-49
2021/05/30 01:48:58;;;;;;;2.55;2.25;;;;;;;22.66;53.58;101204.84;1783274;80;21523;-49
2021/05/30 01:51:25;;;;;;;2.40;2.17;;;;;;;22.65;53.76;101207.97;1765693;79;21048;-49
2021/05/30 01:53:54;;;;;;;2.30;2.15;;;;;;;22.59;54.00;101207.50;1768494;80;21036;-50
2021/05/30 01:59:06;;;;;;;2.05;1.85;;;;;;;22.56;54.25;101206.36;1778280;79;21031;-50
2021/05/30 02:01:33;;;;;;;1.80;1.70;;;;;;;22.56;54.23;101205.89;1767289;80;21063;-50
2021/05/30 02:04:02;;;;;;;2.02;1.85;;;;;;;22.55;54.10;101204.17;1777090;79;21073;-51
2021/05/30 02:06:29;;;;;;;2.37;2.17;;;;;;;22.56;54.13;101205.89;1777569;79;21613;-49
2021/05/30 02:08:56;;;;;;;2.15;1.90;;;;;;;22.54;54.05;101213.10;1778192;79;21040;-49
2021/05/30 02:11:24;;;;;;;2.52;2.10;;;;;;;22.54;54.24;101213.10;1775988;79;21064;-50
2021/05/30 02:13:51;;;;;;;3.37;2.42;;;;;;;22.52;54.38;101217.62;1769477;80;21032;-49
2021/05/30 02:16:17;;;;;;;2.85;2.22;;;;;;;22.54;54.57;101226.36;1782161;79;21040;-50
2021/05/30 02:18:44;;;;;;;4.65;2.25;;;;;;;22.56;54.59;101225.78;1780441;80;21043;-50
2021/05/30 02:21:11;;;;;;;2.55;2.35;;;;;;;22.57;54.66;101226.14;1766547;79;21092;-50
2021/05/30 02:23:38;;;;;;;2.12;1.92;;;;;;;22.59;54.57;101232.70;1774387;80;21083;-50
2021/05/30 02:26:05;;;;;;;3.72;2.10;;;;;;;22.57;54.77;101235.90;1791771;79;21042;-50
2021/05/30 02:28:32;;;;;;;2.72;2.12;;;;;;;22.56;54.69;101244.82;1780252;79;21055;-51
2021/05/30 02:30:58;;;;;;;3.10;2.10;;;;;;;22.54;54.70;101244.92;1763227;80;21021;-51
2021/05/30 02:33:27;;;;;;;2.60;2.10;;;;;;;22.51;54.71;101246.89;1768044;79;21073;-50
2021/05/30 02:35:55;;;;;;;3.60;2.20;;;;;;;22.50;54.77;101243.38;1776096;79;21598;-51
2021/05/30 02:38:22;;;;;;;2.50;2.15;;;;;;;22.54;54.72;101249.38;1777221;79;21040;-51
2021/05/30 02:40:50;;;;;;;3.15;2.42;;;;;;;22.59;54.63;101245.50;1776855;79;21645;-51
2021/05/30 02:43:17;;;;;;;2.55;2.30;;;;;;;22.64;54.34;101246.08;1778017;79;21111;-49
2021/05/30 02:45:44;;;;;;;3.05;2.10;;;;;;;22.67;54.05;101248.98;1785638;79;21661;-50
2021/05/30 02:48:11;;;;;;;3.75;2.00;;;;;;;22.70;53.85;101249.27;1765201;80;21048;-49
2021/05/30 02:50:37;;;;;;;2.90;1.90;;;;;;;22.71;53.86;101256.29;1773017;79;21075;-49
2021/05/30 02:53:04;;;;;;;2.77;2.15;;;;;;;22.71;53.65;101260.27;1776219;79;21127;-48
2021/05/30 02:55:31;;;;;;;2.58;2.20;;;;;;;22.68;53.79;101262.64;1784894;79;21547;-50
2021/05/30 02:57:57;;;;;;;3.37;2.30;;;;;;;22.64;53.77;101265.97;1775817;79;21064;-49
2021/05/30 03:00:25;;;;;;;2.83;2.10;;;;;;;22.63;53.88;101260.27;1769004;80;21120;-48
2021/05/30 03:02:52;;;;;;;2.33;2.12;;;;;;;22.67;53.81;101265.39;1760225;79;21044;-49
2021/05/30 03:05:19;;;;;;;2.40;2.20;;;;;;;22.66;53.55;101263.20;1770087;80;21023;-49
2021/05/30 03:07:47;;;;;;;2.40;2.17;;;;;;;22.68;53.59;101269.73;1771901;80;21024;-50
2021/05/30 03:10:15;;;;;;;2.17;1.98;;;;;;;22.65;53.54;101268.13;1771017;79;21037;-50
2021/05/30 03:12:42;;;;;;;2.55;2.00;;;;;;;22.62;53.57;101265.22;1774690;79;21083;-50
2021/05/30 03:15:10;;;;;;;5.95;2.72;;;;;;;22.65;53.46;101265.00;1766797;80;21075;-50
2021/05/30 03:17:39;;;;;;;3.27;2.20;;;;;;;22.64;53.36;101265.97;1719258;80;21139;-50
2021/05/30 03:20:08;;;;;;;8.15;2.45;;;;;;;22.68;53.32;101261.78;1701318;82;21159;-50
2021/05/30 03:22:34;;;;;;;2.27;2.08;;;;;;;22.64;53.43;101268.63;1706126;82;21084;-50
2021/05/30 03:25:03;;;;;;;2.33;1.90;;;;;;;22.65;53.35;101266.33;1703652;83;21085;-50
2021/05/30 03:27:30;;;;;;;5.40;2.60;;;;;;;22.74;53.10;101271.99;1691905;82;21089;-50
2021/05/30 03:29:57;;;;;;;2.08;1.87;;;;;;;22.86;52.83;101279.16;1707860;82;21071;-50
2021/05/30 03:32:24;;;;;;;2.10;1.90;;;;;;;22.92;52.63;101278.77;1709914;82;21605;-50
2021/05/30 03:34:51;;;;;;;2.12;1.92;;;;;;;23.00;52.37;101277.33;1706701;82;21069;-50
2021/05/30 03:37:17;;;;;;;2.52;2.15;;;;;;;23.17;51.99;101269.59;1704462;83;21575;-49
2021/05/30 03:39:45;;;;;;;2.33;1.98;;;;;;;23.44;51.61;101262.02;1701901;83;21044;-50
2021/05/30 03:42:19;;;;;;;2.42;1.98;;;;;;;23.78;50.67;101264.55;1714804;82;21083;-50
2021/05/30 03:44:45;;;;;;;2.40;1.87;;;;;;;24.07;49.84;101264.76;1771377;79;21021;-49
2021/05/30 03:47:14;;;;;;;1.92;1.82;;;;;;;24.36;49.16;101269.86;1771130;79;21084;-49
2021/05/30 03:49:41;;;;;;;3.17;2.20;;;;;;;24.54;48.73;101268.08;1771432;80;21084;-50
2021/05/30 03:52:12;;;;;;;4.22;2.12;;;;;;;24.64;48.59;101266.45;1768314;79;21028;-50
2021/05/30 03:54:38;;;;;;;2.22;1.92;;;;;;;24.76;48.39;101269.59;1783395;79;21075;-48
2021/05/30 03:57:05;;;;;;;1.85;1.75;;;;;;;24.85;47.92;101274.73;1778346;79;21060;-49
2021/05/30 03:59:32;;;;;;;2.25;2.05;;;;;;;24.88;47.49;101271.83;1773438;79;21075;-49
2021/05/30 04:01:59;;;;;;;2.12;1.92;;;;;;;24.86;47.37;101276.41;1782239;80;21044;-49
2021/05/30 04:04:26;;;;;;;2.52;1.82;;;;;;;24.78;47.03;101276.12;1770563;79;21580;-50
2021/05/30 04:06:52;;;;;;;2.30;2.10;;;;;;;24.64;47.07;101281.56;1780676;79;21021;-49
2021/05/30 04:09:20;;;;;;;1.75;1.62;;;;;;;24.48;47.28;101276.50;1773627;79;21567;-49
2021/05/30 04:11:47;;;;;;;3.08;2.15;;;;;;;24.33;47.66;101274.91;1775558;80;21012;-49
2021/05/30 04:14:13;;;;;;;2.90;2.22;;;;;;;24.16;47.86;101275.23;1746405;81;20998;-49
2021/05/30 04:16:42;;;;;;;2.80;1.80;;;;;;;24.01;48.26;101273.13;1745067;81;21060;-49
2021/05/30 04:19:09;;;;;;;2.05;1.85;;;;;;;23.87;48.53;101267.92;1713845;83;21057;-49
2021/05/30 04:21:36;;;;;;;5.95;1.80;;;;;;;23.78;48.81;101274.36;1711941;83;21124;-49
2021/05/30 04:24:06;;;;;;;2.12;1.92;;;;;;;23.70;48.87;101273.52;1709561;83;21477;-49
2021/05/30 04:26:32;;;;;;;2.27;1.90;;;;;;;23.62;48.91;101273.20;1710434;82;21065;-49
2021/05/30 04:28:59;;;;;;;2.37;1.82;;;;;;;23.54;48.92;101275.52;1719825;82;21574;-49
2021/05/30 04:31:26;;;;;;;2.08;1.87;;;;;;;23.50;49.12;101278.48;1700209;83;21093;-49
2021/05/30 04:33:53;;;;;;;4.50;1.90;;;;;;;23.45;49.05;101274.83;1705608;82;21073;-49
2021/05/30 04:36:20;;;;;;;5.47;2.42;;;;;;;23.41;49.30;101279.97;1704701;83;21612;-50
2021/05/30 04:38:47;;;;;;;2.58;1.70;;;;;;;23.36;49.31;101280.74;1711134;83;21021;-48
2021/05/30 04:41:14;;;;;;;2.17;1.98;;;;;;;23.34;49.44;101283.98;1727786;81;21080;-48
2021/05/30 04:43:41;;;;;;;2.40;2.20;;;;;;;23.33;49.63;101284.91;1773307;80;21061;-50
2021/05/30 04:46:08;;;;;;;2.67;2.47;;;;;;;23.34;49.64;101287.96;1772080;80;21078;-49
2021/05/30 04:48:36;;;;;;;5.12;2.50;;;;;;;23.34;49.70;101287.48;1775780;79;21069;-50
2021/05/30 04:51:05;;;;;;;9.43;2.35;;;;;;;23.38;49.65;101281.49;1771789;79;21043;-50
2021/05/30 04:53:36;;;;;;;2.95;2.05;;;;;;;23.38;49.66;101290.78;1769643;80;21742;-49
2021/05/30 04:56:06;;;;;;;2.40;2.12;;;;;;;23.41;49.94;101291.92;1705842;83;21100;-50
2021/05/30 04:58:34;;;;;;;5.22;2.60;;;;;;;23.49;50.05;101296.72;1771640;79;21020;-49
2021/05/30 05:01:03;;;;;;;3.27;2.17;;;;;;;23.55;49.90;101297.16;1772167;79;21059;-50
2021/05/30 05:03:31;;;;;;;2.05;1.75;;;;;;;23.63;49.98;101292.19;1776077;80;21032;-49
2021/05/30 05:05:58;;;;;;;3.00;2.33;;;;;;;23.76;49.68;101297.02;1782170;79;21032;-48
2021/05/30 05:08:26;;;;;;;3.08;1.95;;;;;;;23.93;49.23;101297.20;1773504;79;21028;-50
2021/05/30 05:10:53;;;;;;;7.25;2.15;;;;;;;24.03;48.85;101297.84;1764146;79;21610;-50
2021/05/30 05:13:21;;;;;;;4.15;2.42;;;;;;;24.08;48.58;101297.05;1780501;79;21052;-50
2021/05/30 05:15:50;;;;;;;3.77;2.33;;;;;;;24.10;48.56;101301.78;1775872;79;21055;-48
2021/05/30 05:18:23;;;;;;;2.70;2.30;;;;;;;24.11;48.59;101295.49;1766827;79;21089;-49
2021/05/30 05:20:51;;;;;;;3.92;2.02;;;;;;;24.16;48.37;101301.36;1776516;79;21039;-49
2021/05/30 05:23:22;;;;;;;3.40;2.20;;;;;;;24.17;48.02;101305.70;1769256;80;21550;-49
2021/05/30 05:25:56;;;;;;;4.33;2.40;;;;;;;24.18;47.80;101306.56;1784022;80;21048;-50
2021/05/30 05:28:23;;;;;;;3.42;2.22;;;;;;;24.16;48.04;101309.34;1775464;79;21138;-50
2021/05/30 05:30:52;;;;;;;2.60;2.40;;;;;;;24.18;48.09;101311.41;1770907;79;21531;-50
2021/05/30 05:33:20;;;;;;;3.35;2.20;;;;;;;24.23;47.81;101317.75;1787290;79;21607;-50
2021/05/30 05:35:47;;;;;;;3.75;2.27;;;;;;;24.27;48.00;101318.37;1777861;79;21055;-49
2021/05/30 05:38:14;;;;;;;6.65;2.33;;;;;;;24.36;47.91;101312.42;1770677;80;21015;-49
2021/05/30 05:40:41;;;;;;;12.18;9.45;;;;;;;24.51;47.65;101309.99;1771606;79;21605;-50
2021/05/30 05:43:08;;;;;;;10.55;6.40;;;;;;;24.69;47.10;101312.70;1769364;80;21021;-50
2021/05/30 05:45:35;;;;;;;57.78;33.60;;;;;;;24.84;46.55;101312.94;1773574;79;21029;-49
2021/05/30 05:48:03;;;;;;;105.45;62.15;;;;;;;25.03;46.29;101309.33;1773645;80;21005;-50
2021/05/30 05:50:30;;;;;;;55.52;33.88;;;;;;;25.22;45.60;101309.69;1778373;79;21020;-50
2021/05/30 05:52:57;;;;;;;17.57;12.40;;;;;;;25.40;45.03;101311.45;1723220;82;21047;-49
2021/05/30 05:55:23;;;;;;;28.92;19.50;;;;;;;25.51;44.61;101303.55;1719007;82;21599;-50
2021/05/30 05:57:51;;;;;;;20.60;12.53;;;;;;;25.62;44.69;101301.77;1705530;83;21024;-50
2021/05/30 06:00:22;;;;;;;61.35;42.93;;;;;;;25.79;43.91;101308.48;1765248;80;21126;-49
2021/05/30 06:02:51;;;;;;;44.85;35.43;;;;;;;25.98;43.78;101309.25;1718413;81;21055;-49
2021/05/30 06:05:20;;;;;;;50.20;35.68;;;;;;;26.20;43.36;101310.17;1724100;81;21076;-50
2021/05/30 06:07:49;;;;;;;11.30;9.35;;;;;;;26.45;42.79;101313.09;1718822;82;21096;-50
2021/05/30 06:10:17;;;;;;;23.73;18.10;;;;;;;26.77;41.89;101315.41;1717307;82;21136;-49
2021/05/30 06:12:45;;;;;;;12.20;9.38;;;;;;;27.16;41.34;101309.50;1710972;82;21059;-49
2021/05/30 06:15:13;;;;;;;74.80;53.23;;;;;;;27.53;40.53;101309.18;1724397;82;21049;-49
2021/05/30 06:17:40;;;;;;;86.10;49.70;;;;;;;27.83;39.89;101306.58;1720369;82;21048;-49
2021/05/30 06:20:09;;;;;;;17.67;11.78;;;;;;;28.08;39.31;101310.23;1722208;82;21076;-50
2021/05/30 06:22:36;;;;;;;6.97;5.85;;;;;;;28.23;39.11;101311.59;1714699;82;21103;-49
2021/05/30 06:25:03;;;;;;;6.62;3.37;;;;;;;28.30;38.90;101314.08;1714680;82;21127;-50
2021/05/30 06:27:30;;;;;;;3.10;2.50;;;;;;;28.26;38.58;101323.36;1716019;82;21096;-49
2021/05/30 06:29:56;;;;;;;4.53;2.10;;;;;;;28.08;38.88;101319.59;1674407;85;21640;-48
2021/05/30 06:32:23;;;;;;;2.10;1.85;;;;;;;27.85;38.92;101318.00;1660281;85;21125;-49
2021/05/30 06:34:50;;;;;;;3.20;1.95;;;;;;;27.70;39.08;101321.48;1704570;83;21064;-49
2021/05/30 06:37:19;;;;;;;4.03;2.70;;;;;;;27.55;39.13;101313.91;1706098;83;21085;-49
2021/05/30 06:39:45;;;;;;;2.75;2.30;;;;;;;27.37;39.40;101315.79;1679441;84;21032;-50
2021/05/30 06:42:12;;;;;;;2.33;2.10;;;;;;;27.22;39.93;101319.69;1714374;82;21162;-49
2021/05/30 06:44:39;;;;;;;3.17;1.80;;;;;;;27.06;40.23;101318.42;1701007;82;21083;-48
2021/05/30 06:47:06;;;;;;;2.35;1.95;;;;;;;26.91;40.69;101317.84;1715437;82;21143;-49
2021/05/30 06:49:34;;;;;;;4.42;2.30;;;;;;;26.78;40.88;101318.45;1706870;82;21052;-50
2021/05/30 06:52:01;;;;;;;6.33;2.92;;;;;;;26.72;41.35;101321.63;1722872;82;21032;-49
2021/05/30 06:54:28;;;;;;;4.72;2.45;;;;;;;26.71;41.33;101323.05;1712806;82;21606;-50
2021/05/30 06:56:55;;;;;;;3.65;2.50;;;;;;;26.68;41.59;101326.81;1712676;82;21083;-50
2021/05/30 06:59:23;;;;;;;4.42;2.67;;;;;;;26.68;41.92;101330.81;1743108;79;21111;-50
2021/05/30 07:01:50;;;;;;;4.25;2.05;;;;;;;26.69;41.56;101329.00;1770358;79;21083;-49
2021/05/30 07:04:17;;;;;;;3.75;2.25;;;;;;;26.67;41.37;101330.44;1777137;79;21143;-49
2021/05/30 07:06:43;;;;;;;5.50;2.33;;;;;;;26.63;41.36;101320.98;1771121;80;21096;-49
2021/05/30 07:09:10;;;;;;;2.40;2.10;;;;;;;26.57;41.72;101316.98;1763510;79;21091;-49
2021/05/30 07:11:37;;;;;;;2.27;1.80;;;;;;;26.53;41.93;101317.34;1769086;80;21551;-50
2021/05/30 07:14:06;;;;;;;5.53;1.85;;;;;;;26.49;41.91;101322.56;1748951;81;21060;-49
2021/05/30 07:16:32;;;;;;;2.42;1.82;;;;;;;26.46;41.90;101324.16;1755575;80;21039;-49
2021/05/30 07:19:01;;;;;;;3.10;1.82;;;;;;;26.43;41.78;101325.71;1760013;79;21071;-49
2021/05/30 07:21:28;;;;;;;4.97;2.22;;;;;;;26.42;41.40;101314.69;1780227;79;21076;-50
2021/05/30 07:23:56;;;;;;;2.25;2.05;;;;;;;26.44;41.76;101326.92;1771678;79;21088;-50
2021/05/30 07:26:23;;;;;;;5.37;2.02;;;;;;;26.43;42.19;101330.58;1770500;80;21064;-49
2021/05/30 07:28:50;;;;;;;4.25;2.10;;;;;;;26.42;42.46;101328.03;1779220;79;21041;-50
2021/05/30 07:31:18;;;;;;;6.25;2.42;;;;;;;26.42;42.46;101328.03;1781208;79;21049;-49
2021/05/30 07:33:46;;;;;;;5.65;2.15;;;;;;;26.40;42.67;101325.94;1785936;79;21032;-50
2021/05/30 07:36:13;;;;;;;3.20;1.87;;;;;;;26.35;41.88;101326.80;1778331;79;21029;-50
2021/05/30 07:38:42;;;;;;;2.95;2.22;;;;;;;26.35;41.88;101326.80;1773971;79;21574;-50
2021/05/30 07:41:09;;;;;;;2.05;1.85;;;;;;;26.34;42.39;101326.42;1772185;80;21156;-51
2021/05/30 07:43:36;;;;;;;1.90;1.80;;;;;;;26.41;42.42;101322.31;1770945;79;21072;-50
2021/05/30 07:46:04;;;;;;;2.08;1.92;;;;;;;26.41;42.42;101322.31;1780971;79;21067;-49
2021/05/30 07:48:31;;;;;;;2.25;1.90;;;;;;;26.44;41.54;101328.25;1775479;79;21036;-49
2021/05/30 07:50:58;;;;;;;2.90;2.30;;;;;;;26.44;41.54;101328.25;1770750;79;21048;-49
2021/05/30 07:53:25;;;;;;;8.03;3.08;;;;;;;26.45;41.52;101327.78;1758548;80;21033;-50
2021/05/30 07:55:51;;;;;;;5.03;3.17;;;;;;;26.43;41.40;101331.05;1771236;79;20997;-51
2021/05/30 07:58:19;;;;;;;2.20;2.00;;;;;;;26.43;41.64;101339.05;1776249;79;21153;-49
2021/05/30 08:00:46;;;;;;;4.78;1.65;;;;;;;26.43;41.63;101339.05;1771686;80;21064;-50
2021/05/30 08:03:13;;;;;;;2.40;2.00;;;;;;;26.43;41.79;101343.06;1794933;79;21100;-50
2021/05/30 08:05:39;;;;;;;6.95;3.22;;;;;;;26.46;41.81;101350.33;1780036;79;21036;-49
2021/05/30 08:08:06;;;;;;;3.22;2.37;;;;;;;26.49;42.01;101359.92;1771621;80;21035;-49
2021/05/30 08:10:33;;;;;;;2.10;1.90;;;;;;;26.49;42.01;101359.92;1779336;79;21041;-49
2021/05/30 08:13:01;;;;;;;1.87;1.60;;;;;;;26.46;42.02;101360.18;1774188;79;21558;-49
2021/05/30 08:15:28;;;;;;;1.72;1.60;;;;;;;26.46;41.94;101360.18;1770478;79;21088;-49
2021/05/30 08:17:56;;;;;;;3.70;2.33;;;;;;;26.47;42.09;101355.19;1774924;80;21075;-49
2021/05/30 08:20:24;;;;;;;5.65;2.30;;;;;;;26.47;42.09;101355.19;1772467;79;21095;-49
2021/05/30 08:22:51;;;;;;;5.22;2.55;;;;;;;26.49;42.44;101353.25;1764215;79;21012;-49
2021/05/30 08:25:18;;;;;;;5.65;2.60;;;;;;;26.52;42.81;101349.02;1767828;79;21028;-50
2021/05/30 08:27:47;;;;;;;10.82;2.80;;;;;;;26.53;42.94;101345.37;1777591;79;21032;-50
2021/05/30 08:30:15;;;;;;;3.80;2.50;;;;;;;26.54;43.20;101349.75;1770648;79;21587;-49
2021/05/30 08:32:42;;;;;;;3.77;2.47;;;;;;;26.53;43.41;101355.56;1778266;79;21544;-49
2021/05/30 08:35:10;;;;;;;4.60;2.30;;;;;;;26.53;43.11;101357.38;1774376;79;21067;-50
2021/05/30 08:37:41;;;;;;;4.00;2.17;;;;;;;26.50;42.80;101361.12;1716598;81;21567;-50
2021/05/30 08:40:08;;;;;;;2.83;2.17;;;;;;;26.50;42.80;101361.12;1716407;81;21103;-50
2021/05/30 08:42:35;;;;;;;5.50;2.55;;;;;;;26.49;43.24;101366.59;1713613;83;21533;-50
2021/05/30 08:45:03;;;;;;;3.00;2.30;;;;;;;26.49;43.27;101363.92;1708355;83;21040;-49
2021/05/30 08:47:30;;;;;;;3.17;2.10;;;;;;;26.45;42.97;101365.14;1721454;82;21104;-49
2021/05/30 08:49:58;;;;;;;3.20;2.25;;;;;;;26.46;42.63;101369.52;1702595;82;21101;-50
2021/05/30 08:52:24;;;;;;;2.75;2.15;;;;;;;26.50;42.31;101369.65;1720069;82;21033;-49
2021/05/30 08:54:51;;;;;;;3.58;2.62;;;;;;;26.52;42.07;101366.38;1780329;79;21021;-50
2021/05/30 08:57:18;;;;;;;2.27;2.08;;;;;;;26.52;42.07;101366.38;1789687;79;21036;-49
2021/05/30 08:59:51;;;;;;;4.25;2.17;;;;;;;26.60;42.06;101375.95;1737737;82;21070;-49
2021/05/30 09:02:17;;;;;;;7.17;2.17;;;;;;;26.63;42.32;101376.20;1679848;82;21131;-50
2021/05/30 09:04:53;;;;;;;5.05;2.08;;;;;;;26.70;42.73;101388.94;1693774;83;21046;-49
2021/05/30 09:07:45;;;;;;;3.10;2.22;;;;;;;26.73;42.59;101386.05;1672503;83;21076;-49
2021/05/30 09:10:18;;;;;;;2.35;2.00;;;;;;;26.76;42.82;101387.16;1687219;83;21106;-48
2021/05/30 09:12:46;;;;;;;2.15;1.95;;;;;;;26.80;43.07;101387.27;1634192;86;21103;-48
2021/05/30 09:15:47;;;;;;;4.12;1.60;;;;;;;26.82;43.38;101378.66;1617181;87;21159;-48
2021/05/30 09:18:14;;;;;;;3.15;2.08;;;;;;;26.90;43.61;101390.91;1623006;87;21179;-51
2021/05/30 09:20:57;;;;;;;2.40;1.98;;;;;;;26.98;43.33;101387.61;1621714;87;21096;-48
2021/05/30 09:23:36;;;;;;;4.10;2.33;;;;;;;27.03;42.83;101394.78;1569424;89;21652;-48
2021/05/30 09:26:17;;;;;;;3.90;2.25;;;;;;;27.05;42.93;101399.05;1619663;87;21120;-49
2021/05/30 09:29:10;;;;;;;3.02;2.77;;;;;;;27.05;42.88;101396.37;1634046;87;21101;-49
2021/05/30 09:31:58;;;;;;;3.62;2.60;;;;;;;27.05;42.76;101395.03;1621043;87;21071;-49
2021/05/30 09:34:38;;;;;;;3.75;2.87;;;;;;;27.07;42.93;101395.76;1618270;87;21088;-51
2021/05/30 09:37:09;;;;;;;5.10;3.10;;;;;;;27.07;42.93;101395.76;1565673;90;21610;-50
2021/05/30 09:39:43;;;;;;;5.37;3.00;;;;;;;27.08;43.12;101397.44;1554755;91;21098;-49
2021/05/30 09:42:37;;;;;;;3.10;2.70;;;;;;;27.10;43.16;101394.16;1571160;89;21694;-49
2021/05/30 09:45:10;;;;;;;6.58;2.70;;;;;;;27.11;43.09;101386.52;1575188;89;21103;-49
2021/05/30 09:47:46;;;;;;;4.67;2.92;;;;;;;27.13;43.34;101386.39;1570251;89;21796;-50
2021/05/30 09:50:18;;;;;;;4.55;2.95;;;;;;;27.14;43.67;101390.27;1537568;90;21241;-49
2021/05/30 09:52:51;;;;;;;3.67;2.45;;;;;;;27.14;43.75;101386.26;1524343;91;21128;-49
2021/05/30 09:55:22;;;;;;;3.85;2.22;;;;;;;27.15;43.87;101389.78;1526298;91;21129;-49
2021/05/30 09:58:16;;;;;;;2.25;2.00;;;;;;;27.18;43.94;101395.72;1533617;91;21096;-49
2021/05/30 10:00:59;;;;;;;4.25;2.10;;;;;;;27.21;43.72;101390.63;1515388;92;21116;-51
2021/05/30 10:03:25;;;;;;;2.72;2.10;;;;;;;27.23;43.95;101390.88;1524403;92;21133;-50
2021/05/30 10:05:52;;;;;;;3.62;2.20;;;;;;;27.28;43.85;101395.84;1523464;92;21248;-49
2021/05/30 10:08:22;;;;;;;3.80;2.10;;;;;;;27.32;44.05;101390.14;1519591;92;21105;-50
2021/05/30 10:10:50;;;;;;;2.87;2.27;;;;;;;27.36;43.82;101388.08;1517262;92;21137;-49
2021/05/30 10:13:17;;;;;;;4.53;2.33;;;;;;;27.37;43.47;101382.61;1529532;92;21217;-50
2021/05/30 10:15:44;;;;;;;3.70;2.60;;;;;;;27.34;43.30;101382.87;1550260;90;21108;-49
2021/05/30 10:18:28;;;;;;;3.50;2.25;;;;;;;27.36;43.38;101390.28;1574848;89;21636;-49
2021/05/30 10:20:57;;;;;;;2.92;2.00;;;;;;;27.35;43.26;101380.55;1594384;88;21138;-48
2021/05/30 10:23:24;;;;;;;2.80;2.12;;;;;;;27.38;43.32;101384.31;1602063;88;21149;-49
2021/05/30 10:25:55;;;;;;;4.10;1.90;;;;;;;27.39;43.77;101382.47;1578770;89;21100;-49
2021/05/30 10:28:22;;;;;;;2.62;2.10;;;;;;;27.39;43.77;101384.66;1612014;87;21063;-51
2021/05/30 10:30:51;;;;;;;4.33;2.17;;;;;;;27.40;43.90;101392.20;1616917;87;21084;-48
2021/05/30 10:33:24;;;;;;;4.92;1.90;;;;;;;27.41;43.98;101389.05;1638054;86;21610;-48
2021/05/30 10:35:53;;;;;;;2.08;1.98;;;;;;;27.44;44.01;101384.77;1636113;86;21575;-48
2021/05/30 10:38:43;;;;;;;1.85;1.75;;;;;;;27.45;44.01;101385.15;1649191;86;21103;-48
2021/05/30 10:41:23;;;;;;;2.65;2.45;;;;;;;27.43;43.83;101379.08;1698273;82;21109;-48
2021/05/30 10:43:50;;;;;;;3.37;2.20;;;;;;;27.39;43.87;101384.66;1702460;83;21041;-49
2021/05/30 10:46:22;;;;;;;4.12;2.37;;;;;;;27.35;43.85;101377.88;1705786;83;21064;-48
2021/05/30 10:49:07;;;;;;;2.45;2.22;;;;;;;27.33;43.66;101387.81;1702679;83;21699;-51
2021/05/30 10:51:45;;;;;;;3.00;2.10;;;;;;;27.31;43.55;101383.08;1700199;82;21072;-48
2021/05/30 10:54:13;;;;;;;2.20;2.02;;;;;;;27.27;43.68;101388.31;1711957;83;21079;-48
2021/05/30 10:56:46;;;;;;;2.30;2.10;;;;;;;27.24;44.03;101384.53;1698946;83;21569;-48
2021/05/30 10:59:21;;;;;;;2.45;1.40;;;;;;;27.19;44.12;101382.74;1708482;83;21127;-49
2021/05/30 11:01:48;;;;;;;4.00;1.60;;;;;;;27.13;43.61;101377.89;1706321;83;21222;-50
2021/05/30 11:04:31;;;;;;;2.55;1.80;;;;;;;27.11;43.66;101383.85;1699623;83;21064;-50
2021/05/30 11:07:06;;;;;;;3.15;1.67;;;;;;;27.10;44.19;101384.81;1712191;83;21125;-49
2021/05/30 11:09:58;;;;;;;2.20;1.72;;;;;;;27.09;43.85;101384.94;1708467;83;21075;-49
2021/05/30 11:12:51;;;;;;;1.60;1.50;;;;;;;27.09;43.79;101383.13;1711625;83;21091;-50
2021/05/30 11:15:20;;;;;;;2.12;1.50;;;;;;;27.12;44.24;101390.05;1705443;83;21363;-48
2021/05/30 11:17:59;;;;;;;1.77;1.67;;;;;;;27.12;44.24;101390.05;1745989;80;21032;-48
2021/05/30 11:20:32;;;;;;;1.65;1.40;;;;;;;27.14;43.86;101396.95;1752449;80;21590;-50
2021/05/30 11:23:01;;;;;;;1.82;1.32;;;;;;;27.17;43.37;101402.05;1754820;80;21527;-49
2021/05/30 11:28:13;;;;;;;2.00;1.80;;;;;;;27.20;43.77;101401.79;1656378;84;21094;-50
2021/05/30 11:30:55;;;;;;;3.00;1.35;;;;;;;27.21;43.96;101401.31;1658213;85;21082;-49
2021/05/30 11:33:27;;;;;;;1.82;1.60;;;;;;;27.23;44.12;101400.22;1655079;84;21601;-49
2021/05/30 11:36:03;;;;;;;1.80;1.70;;;;;;;27.21;43.98;101399.50;1651352;85;21061;-49
2021/05/30 11:38:53;;;;;;;3.00;1.67;;;;;;;27.19;43.92;101394.77;1651360;84;21191;-49